Station KATP - Green Canyon 787 / Atlantis (BP) Image indicating link to RSS feed of recent meteorological observations for station KATP


Conditions at KATP as of
(6:40 pm CDT)
2340 GMT on 05/17/2024:
     

Click on the graph icon in the table below to see a time series plot of the last five days of that observation.

5-day plot - Wind Direction Wind Direction (WDIR): S ( 170 deg true )
5-day plot - Wind Speed Wind Speed (WSPD): 11.1 kts
5-day plot - Wind Gust Wind Gust (GST): 17.1 kts
5-day plot - Air Temperature Air Temperature (ATMP): 80.6 °F
5-day plot - Dew Point Dew Point (DEWP): 78.8 °F
5-day plot - Visibility Visibility (VIS): 3.5 nmi
5-day plot -  Wind Speed, Wind Gust and Atmospheric Pressure Combined plot of Wind Speed, Gust, and Air Pressure
Previous observations
TIME
(CDT)
5-day plot - Wind Direction
WDIR
 
5-day plot - Wind Speed
WSPD
kts
5-day plot - Wind Gust
GST
kts
5-day plot - Wave Height
WVHT
ft
5-day plot - Dominant Wave Period
DPD
sec
5-day plot - Average Wave Period
APD
sec
5-day plot - Mean Wave Direction
MWD
 
5-day plot - Atmospheric Pressure
PRES
in
5-day plot - Pressure Tendency
PTDY
in
5-day plot - Air Temperature
ATMP
°F
5-day plot - Water Temperature
WTMP
°F
5-day plot - Dew Point
DEWP
°F
5-day plot - Salinity
SAL
psu
5-day plot - Visibility
VIS
nmi
5-day plot - Tide (above MLLW)
TIDE
ft
2024-05-17 06:20 pm S 11.1 19.0------ 82.4- 78.8- 3.5-
2024-05-17 06:00 pm S 12.0------- 82.4- 78.8- 3.5-
2024-05-17 05:40 pm S 9.9------- 82.4- 78.8- 3.5-
2024-05-17 05:20 pm S 11.1------- 82.4- 78.8- 4.3-
2024-05-17 05:00 pm S 9.9------- 82.4- 78.8- 3.5-
2024-05-17 04:40 pm S 9.9 18.1------ 82.4- 78.8- 3.5-
2024-05-17 04:20 pm S 9.9 19.0------ 82.4- 77.0---
2024-05-17 04:00 pm S 12.0 19.0------ 82.4- 77.0- 3.5-
2024-05-17 03:40 pm S 8.9 15.9------ 82.4- 77.0- 3.5-
2024-05-17 03:20 pm S 8.9 18.1------ 82.4- 77.0- 3.5-
2024-05-17 03:00 pm S 14.0 22.9------ 82.4- 77.0- 3.5-
2024-05-17 02:40 pm S 13.0 22.0------ 82.4- 77.0- 3.5-
2024-05-17 02:20 pm S 15.0 22.9------ 82.4- 77.0- 4.3-
2024-05-17 02:00 pm S 12.0 22.0------ 82.4- 77.0- 3.5-
2024-05-17 01:40 pm S 14.0 22.0------ 82.4- 77.0- 3.5-
2024-05-17 01:20 pm S 12.0 22.9------ 82.4- 77.0- 3.5-
2024-05-17 01:00 pm S 8.9 20.0------ 82.4- 77.0- 4.3-
2024-05-17 12:40 pm S 8.9 22.0------ 82.4- 77.0- 3.5-
2024-05-17 12:20 pm S 14.0 27.0------ 82.4- 77.0- 4.3-
2024-05-17 12:00 pm S 12.0 22.0------ 82.4- 77.0- 3.5-
2024-05-17 11:40 am S 11.1 22.0------ 82.4- 77.0- 3.5-
2024-05-17 11:20 am S 11.1 22.0------ 82.4- 77.0- 3.5-
2024-05-17 11:00 am S 13.0 24.1------ 82.4- 77.0- 3.5-
2024-05-17 10:40 am S 13.0 25.1------ 82.4- 77.0- 3.5-
2024-05-17 10:20 am S 20.0------- 82.4- 77.0- 3.5-
2024-05-17 10:00 am S 19.0 25.1------ 82.4- 78.8- 3.5-
2024-05-17 09:40 am S 20.0------- 82.4- 78.8- 3.5-
2024-05-17 09:20 am S 21.0------- 82.4- 78.8- 3.5-
2024-05-17 09:00 am S 20.0------- 80.6- 77.0- 3.5-
2024-05-17 08:40 am S 19.0------- 80.6- 78.8- 3.5-
2024-05-17 08:20 am S 20.0------- 80.6- 78.8- 2.6-
2024-05-17 08:00 amSSE 15.0 24.1------ 80.6- 78.8- 2.6-
2024-05-17 07:40 amSSE 15.9 22.9------ 80.6- 77.0- 3.5-
2024-05-17 07:20 amSSE 12.0 19.0------ 80.6- 77.0- 2.6-
2024-05-17 07:00 amSSE 12.0 20.0------ 80.6- 77.0- 2.6-
2024-05-17 06:40 am S 9.9------- 80.6- 77.0- 2.6-
2024-05-17 06:20 am S 9.9------- 80.6- 77.0- 3.5-
2024-05-17 06:00 am S 9.9------- 80.6- 77.0- 4.3-
2024-05-17 05:40 am S 9.9------- 80.6- 77.0- 4.3-
2024-05-17 05:20 am S 9.9------- 80.6- 77.0- 5.2-
2024-05-17 05:00 am S 9.9 19.0------ 80.6- 77.0- 5.2-
2024-05-17 04:40 am S 11.1 20.0------ 80.6- 77.0- 5.2-
2024-05-17 04:20 am S 15.0 24.1------ 80.6- 77.0- 5.2-
2024-05-17 04:00 am S 12.0 18.1------ 80.6- 77.0- 4.3-
2024-05-17 03:40 am S 9.9 24.1------ 80.6- 77.0- 4.3-
2024-05-17 03:20 am S 13.0 24.1------ 80.6- 77.0- 5.2-
2024-05-17 03:00 am S 15.9 27.0------ 80.6- 77.0- 5.2-
2024-05-17 02:40 am S 20.0 29.9------ 80.6- 77.0- 4.3-
2024-05-17 02:20 am S 24.1 31.1------ 80.6- 77.0- 5.2-
2024-05-17 02:00 am S 22.9 32.1------ 80.6- 77.0---
2024-05-17 01:40 am S 20.0 28.9------ 80.6- 77.0- 4.3-
2024-05-17 01:20 am S 20.0 27.0------ 80.6- 78.8- 4.3-
2024-05-17 01:00 am S 21.0 28.0------ 80.6- 77.0- 3.5-
2024-05-17 12:40 amSSE 15.9 26.0------ 80.6- 77.0- 4.3-
2024-05-17 12:20 amSSE 20.0 31.1------ 80.6- 78.8- 4.3-
2024-05-17 12:00 amSSE 19.0 27.0------ 80.6- 78.8- 4.3-
2024-05-16 11:40 pmSSE 21.0 27.0------ 80.6- 78.8- 3.5-
2024-05-16 11:20 pmSSE 22.9------- 80.6- 78.8- 4.3-
2024-05-16 11:00 pm SE 22.9 28.9------ 80.6- 78.8- 3.5-
2024-05-16 10:40 pmSSE 21.0 28.9------ 80.6- 78.8- 4.3-
2024-05-16 10:20 pm SE 26.0 32.1------ 80.6- 77.0- 4.3-
2024-05-16 10:00 pm SE 15.9 22.9------ 80.6- 78.8- 4.3-
2024-05-16 09:40 pmESE 15.9 22.9------ 80.6- 78.8- 4.3-
2024-05-16 09:20 pmESE 14.0------- 80.6- 78.8- 4.3-
2024-05-16 09:00 pm SE 15.0------- 80.6- 78.8- 4.3-
2024-05-16 08:40 pm SE 15.9------- 80.6- 78.8- 4.3-
2024-05-16 08:15 pm SE 14.0------- 80.6- 78.8- 4.3-
2024-05-16 08:00 pm SE 15.0------- 80.6- 78.8- 2.6-
2024-05-16 07:40 pm SE 15.0 28.0------ 80.6- 78.8- 2.6-
2024-05-16 07:20 pm SE 18.1 25.1------ 80.6- 78.8- 2.6-
2024-05-16 07:00 pm SE 14.0 21.0------ 80.6- 78.8- 2.6-